createdAt,value
2022-08-29T00:00:17.821Z,353.60
2022-08-29T00:02:47.346Z,338.90
2022-08-29T00:05:14.242Z,335.00
2022-08-29T00:07:40.941Z,330.13
2022-08-29T00:10:09.199Z,328.73
2022-08-29T00:12:37.452Z,341.83
2022-08-29T00:15:07.243Z,329.73
2022-08-29T00:17:33.827Z,318.23
2022-08-29T00:20:00.601Z,315.15
2022-08-29T00:22:27.219Z,317.10
2022-08-29T00:24:53.805Z,305.50
2022-08-29T00:27:20.331Z,298.98
2022-08-29T00:29:47.295Z,291.08
2022-08-29T00:32:13.830Z,309.60
2022-08-29T00:34:40.442Z,315.92
2022-08-29T00:37:06.980Z,316.13
2022-08-29T00:39:34.046Z,317.67
2022-08-29T00:42:01.312Z,306.80
2022-08-29T00:44:28.642Z,302.73
2022-08-29T00:46:58.608Z,306.15
2022-08-29T00:49:39.141Z,304.42
2022-08-29T00:52:37.387Z,294.65
2022-08-29T00:55:11.119Z,263.15
2022-08-29T00:57:42.381Z,227.40
2022-08-29T01:00:10.183Z,175.10
2022-08-29T01:02:40.739Z,128.05
2022-08-29T01:05:09.188Z,96.75
2022-08-29T01:07:35.799Z,88.38
2022-08-29T01:10:13.331Z,90.28
2022-08-29T01:12:40.830Z,87.63
2022-08-29T01:15:10.301Z,95.82
2022-08-29T01:17:44.623Z,102.72
2022-08-29T01:20:28.754Z,103.45
2022-08-29T01:23:44.928Z,92.13
2022-08-29T01:26:13.025Z,101.13
2022-08-29T01:28:47.170Z,102.40
2022-08-29T01:31:51.419Z,111.32
2022-08-29T01:34:10.550Z,99.40
2022-08-29T01:36:53.629Z,96.93
2022-08-29T01:39:24.598Z,97.43
2022-08-29T01:41:51.814Z,97.38
2022-08-29T01:44:20.919Z,96.72
2022-08-29T01:46:49.613Z,99.00
2022-08-29T01:49:18.364Z,102.30
2022-08-29T01:51:45.883Z,96.05
2022-08-29T01:54:14.385Z,93.68
2022-08-29T01:56:45.410Z,100.05
2022-08-29T01:59:14.962Z,103.13
2022-08-29T02:01:54.727Z,94.72
2022-08-29T02:04:21.327Z,92.50
2022-08-29T02:06:47.910Z,91.13
2022-08-29T02:09:14.435Z,84.47
2022-08-29T02:11:41.047Z,95.38
2022-08-29T02:14:08.128Z,86.60
2022-08-29T02:16:42.939Z,92.65
2022-08-29T02:19:09.518Z,83.10
2022-08-29T02:21:36.175Z,86.35
2022-08-29T02:24:23.935Z,83.60
2022-08-29T02:26:51.886Z,83.75
2022-08-29T02:29:18.430Z,94.07
2022-08-29T02:31:45.054Z,101.22
2022-08-29T02:34:12.550Z,94.80
2022-08-29T02:36:41.415Z,90.82
2022-08-29T02:39:08.644Z,94.53
2022-08-29T02:41:35.921Z,91.88
2022-08-29T02:44:03.714Z,94.15
2022-08-29T02:46:30.450Z,90.28
2022-08-29T02:49:00.443Z,92.25
2022-08-29T02:51:30.927Z,86.90
2022-08-29T02:53:57.913Z,85.85
2022-08-29T02:56:24.559Z,92.88
2022-08-29T02:58:51.113Z,82.60
2022-08-29T03:01:22.553Z,77.93
2022-08-29T03:03:50.530Z,64.13
2022-08-29T03:06:18.114Z,49.85
2022-08-29T03:08:44.717Z,51.95
2022-08-29T03:11:11.399Z,48.15
2022-08-29T03:13:38.651Z,51.20
2022-08-29T03:16:05.261Z,68.18
2022-08-29T03:18:32.099Z,70.60
2022-08-29T03:20:59.589Z,68.43
2022-08-29T03:23:26.126Z,68.85
2022-08-29T03:25:52.710Z,65.10
2022-08-29T03:28:19.409Z,68.40
2022-08-29T03:30:46.726Z,76.15
2022-08-29T03:33:13.321Z,80.07
2022-08-29T03:35:40.089Z,70.60
2022-08-29T03:38:06.891Z,76.65
2022-08-29T03:40:33.970Z,80.88
2022-08-29T03:43:00.771Z,81.70
2022-08-29T03:45:27.405Z,86.18
2022-08-29T03:47:54.031Z,84.18
2022-08-29T03:50:21.727Z,85.32
2022-08-29T03:52:48.683Z,84.35
2022-08-29T03:55:16.073Z,83.18
2022-08-29T03:57:43.243Z,76.00
2022-08-29T04:00:19.028Z,84.00
2022-08-29T04:02:47.466Z,81.53
2022-08-29T04:05:16.099Z,82.68
2022-08-29T04:07:50.225Z,78.13
2022-08-29T04:12:55.097Z,52.85
2022-08-29T04:15:23.346Z,59.03
2022-08-29T04:17:55.281Z,55.47
2022-08-29T04:20:25.714Z,54.08
2022-08-29T04:22:54.211Z,51.10
2022-08-29T04:25:21.961Z,52.00
2022-08-29T04:27:49.640Z,47.05
2022-08-29T04:30:20.861Z,50.00
2022-08-29T04:32:47.449Z,43.67
2022-08-29T04:35:14.770Z,47.42
2022-08-29T04:37:42.690Z,47.75
2022-08-29T04:40:13.753Z,48.38
2022-08-29T04:42:41.322Z,48.13
2022-08-29T04:45:12.333Z,50.85
2022-08-29T04:47:39.756Z,50.75
2022-08-29T04:50:08.422Z,54.53
2022-08-29T04:52:35.042Z,58.95
2022-08-29T04:55:01.602Z,67.35
2022-08-29T04:57:28.192Z,71.55
2022-08-29T04:59:59.951Z,69.40
2022-08-29T05:02:28.161Z,75.22
2022-08-29T05:04:56.827Z,73.63
2022-08-29T05:07:26.026Z,71.25
2022-08-29T05:09:58.719Z,78.05
2022-08-29T05:12:26.577Z,78.72
2022-08-29T05:14:53.882Z,77.60
2022-08-29T05:17:21.436Z,77.90
2022-08-29T05:19:48.229Z,73.13
2022-08-29T05:22:16.719Z,74.80
2022-08-29T05:24:43.586Z,83.97
2022-08-29T05:27:13.346Z,76.55
2022-08-29T05:29:45.010Z,77.70
2022-08-29T05:32:14.896Z,82.03
2022-08-29T05:34:43.468Z,83.28
2022-08-29T05:37:17.268Z,95.07
2022-08-29T05:39:43.809Z,77.10
2022-08-29T05:42:12.296Z,73.00
2022-08-29T05:44:40.165Z,74.40
2022-08-29T05:47:09.455Z,71.90
2022-08-29T05:49:41.252Z,73.88
2022-08-29T05:52:09.199Z,81.63
2022-08-29T05:54:37.542Z,84.30
2022-08-29T05:57:05.604Z,77.97
2022-08-29T05:59:32.514Z,71.97
2022-08-29T06:01:59.074Z,74.03
2022-08-29T06:04:25.822Z,63.78
2022-08-29T06:06:52.384Z,69.43
2022-08-29T06:09:19.168Z,61.03
2022-08-29T06:11:48.887Z,96.65
2022-08-29T06:14:16.562Z,68.20
2022-08-29T06:16:43.352Z,79.88
2022-08-29T06:19:10.139Z,78.57
2022-08-29T06:21:36.681Z,87.05
2022-08-29T06:24:04.396Z,98.90
2022-08-29T06:26:31.568Z,126.57
2022-08-29T06:28:58.445Z,148.00
2022-08-29T06:31:29.148Z,158.82
2022-08-29T06:33:59.219Z,156.88
2022-08-29T06:36:27.401Z,175.30
2022-08-29T06:38:58.622Z,198.27
2022-08-29T06:41:26.190Z,218.45
2022-08-29T06:43:55.099Z,214.15
2022-08-29T06:46:25.863Z,225.00
2022-08-29T06:48:53.413Z,241.80
2022-08-29T06:51:20.483Z,253.80
2022-08-29T06:53:47.122Z,309.80
2022-08-29T06:56:15.031Z,256.85
2022-08-29T06:58:42.528Z,265.45
2022-08-29T07:01:15.268Z,282.65
2022-08-29T07:03:42.270Z,288.17
2022-08-29T07:06:09.179Z,283.92
2022-08-29T07:08:38.819Z,288.77
2022-08-29T07:11:08.099Z,284.15
2022-08-29T07:13:35.205Z,285.90
2022-08-29T07:16:01.990Z,290.00
2022-08-29T07:18:29.400Z,287.42
2022-08-29T07:20:56.005Z,284.40
2022-08-29T07:23:22.558Z,284.33
2022-08-29T07:25:49.082Z,295.17
2022-08-29T07:28:15.797Z,303.98
2022-08-29T07:30:42.461Z,290.35
2022-08-29T07:33:09.533Z,284.80
2022-08-29T07:35:36.073Z,284.13
2022-08-29T07:38:02.647Z,303.05
2022-08-29T07:40:29.739Z,338.80
2022-08-29T07:42:56.351Z,349.13
2022-08-29T07:45:23.046Z,387.30
2022-08-29T07:47:49.750Z,344.70
2022-08-29T07:50:17.082Z,412.92
2022-08-29T07:52:43.629Z,426.00
2022-08-29T07:55:10.274Z,406.58
2022-08-29T07:57:37.007Z,414.90
2022-08-29T08:00:10.054Z,425.95
2022-08-29T08:02:36.642Z,403.85
2022-08-29T08:05:03.238Z,446.02
2022-08-29T08:07:35.140Z,494.05
2022-08-29T08:10:03.125Z,485.30
2022-08-29T08:12:30.082Z,508.10
2022-08-29T08:14:57.189Z,499.80
2022-08-29T08:17:23.895Z,525.05
2022-08-29T08:19:50.401Z,528.40
2022-08-29T08:22:16.966Z,539.33
2022-08-29T08:24:43.706Z,558.72
2022-08-29T08:27:10.322Z,507.13
2022-08-29T08:29:36.853Z,503.35
2022-08-29T08:32:03.738Z,486.48
2022-08-29T08:34:30.337Z,497.42
2022-08-29T08:36:57.312Z,482.48
2022-08-29T08:39:23.879Z,551.28
2022-08-29T08:42:00.528Z,528.75
2022-08-29T08:44:52.470Z,498.50
2022-08-29T08:47:26.538Z,538.83
2022-08-29T08:50:12.864Z,553.67
2022-08-29T08:52:42.436Z,540.03
2022-08-29T08:55:25.120Z,578.22
2022-08-29T08:58:02.653Z,581.55
2022-08-29T09:00:39.294Z,524.80
2022-08-29T09:03:23.447Z,572.92
2022-08-29T09:08:26.505Z,567.67
2022-08-29T09:11:04.248Z,605.88
2022-08-29T09:13:58.189Z,550.13
2022-08-29T09:16:31.537Z,560.90
2022-08-29T09:19:09.505Z,616.83
2022-08-29T09:21:56.065Z,564.88
2022-08-29T09:24:44.449Z,536.35
2022-08-29T09:27:23.616Z,538.42
2022-08-29T09:29:58.667Z,532.92
2022-08-29T09:32:25.237Z,481.45
2022-08-29T09:37:38.704Z,523.35
2022-08-29T09:40:12.544Z,474.02
2022-08-29T09:42:52.411Z,513.55
2022-08-29T09:45:25.334Z,540.03
2022-08-29T09:48:17.447Z,400.53
2022-08-29T09:50:44.602Z,505.63
2022-08-29T09:53:24.588Z,563.15
2022-08-29T09:55:52.894Z,342.17
2022-08-29T09:58:19.990Z,427.50
2022-08-29T10:01:00.761Z,351.52
2022-08-29T10:03:33.346Z,249.40
2022-08-29T10:06:28.148Z,305.45
2022-08-29T10:09:08.360Z,309.45
2022-08-29T10:11:56.431Z,130.40
2022-08-29T10:14:33.624Z,170.23
2022-08-29T10:17:22.691Z,167.20
2022-08-29T10:19:50.671Z,95.65
2022-08-29T10:22:27.405Z,230.98
2022-08-29T10:25:20.902Z,106.18
2022-08-29T10:27:58.498Z,81.55
2022-08-29T10:30:37.211Z,92.93
2022-08-29T10:33:16.909Z,77.22
2022-08-29T10:35:55.899Z,75.65
2022-08-29T10:38:46.072Z,91.97
2022-08-29T10:41:34.154Z,79.25
2022-08-29T10:44:01.290Z,54.65
2022-08-29T10:46:50.059Z,76.05
2022-08-29T10:49:52.184Z,48.17
2022-08-29T10:52:43.058Z,45.20
2022-08-29T10:55:35.684Z,84.40
2022-08-29T10:58:02.162Z,43.08
2022-08-29T11:01:12.186Z,42.42
2022-08-29T11:03:48.568Z,79.25
2022-08-29T11:06:30.291Z,44.42
2022-08-29T11:09:27.731Z,43.00
2022-08-29T11:12:05.514Z,54.05
2022-08-29T11:14:39.519Z,45.70
2022-08-29T11:17:09.238Z,40.72
2022-08-29T11:20:11.409Z,48.88
2022-08-29T11:22:42.772Z,43.78
2022-08-29T11:25:15.953Z,41.58
2022-08-29T11:28:04.166Z,40.97
2022-08-29T11:30:40.380Z,34.58
2022-08-29T11:33:32.718Z,29.08
2022-08-29T11:36:17.567Z,30.58
2022-08-29T11:39:05.172Z,23.63
2022-08-29T11:41:54.108Z,23.20
2022-08-29T11:44:32.027Z,22.15
2022-08-29T11:46:58.992Z,19.95
2022-08-29T11:49:46.631Z,24.27
2022-08-29T11:52:18.899Z,20.35
2022-08-29T11:55:16.170Z,20.50
2022-08-29T11:57:52.742Z,22.17
2022-08-29T12:00:38.147Z,22.38
2022-08-29T12:03:14.896Z,22.58
2022-08-29T12:05:57.819Z,22.67
2022-08-29T12:08:42.593Z,23.25
2022-08-29T12:11:09.127Z,23.88
2022-08-29T12:13:45.029Z,23.90
2022-08-29T12:16:15.431Z,23.25
2022-08-29T12:18:48.786Z,25.27
2022-08-29T12:21:33.632Z,26.17
2022-08-29T12:24:00.966Z,24.80
2022-08-29T12:26:44.631Z,25.10
2022-08-29T12:29:43.721Z,25.60
2022-08-29T12:32:23.103Z,24.80
2022-08-29T12:35:16.404Z,26.17
2022-08-29T12:37:53.951Z,25.75
2022-08-29T12:40:41.738Z,29.67
2022-08-29T12:43:17.114Z,30.02
2022-08-29T12:45:46.058Z,32.67
2022-08-29T12:48:41.262Z,30.70
2022-08-29T12:51:09.338Z,31.08
2022-08-29T12:53:37.054Z,34.17
2022-08-29T12:56:22.429Z,38.90
2022-08-29T12:58:51.682Z,36.78
2022-08-29T13:01:38.138Z,26.23
2022-08-29T13:04:06.450Z,26.42
2022-08-29T13:06:33.846Z,22.88
2022-08-29T13:09:00.830Z,23.80
2022-08-29T13:11:30.664Z,16.33
2022-08-29T13:14:06.732Z,17.48
2022-08-29T13:16:33.374Z,16.98
2022-08-29T13:19:10.947Z,18.50
2022-08-29T13:21:38.368Z,20.38
2022-08-29T13:24:12.782Z,24.50
2022-08-29T13:26:50.682Z,24.65
2022-08-29T13:29:42.438Z,27.00
2022-08-29T13:32:27.808Z,31.85
2022-08-29T13:35:15.370Z,34.47
2022-08-29T13:37:46.440Z,30.17
2022-08-29T13:40:31.626Z,25.55
2022-08-29T13:42:59.616Z,25.63
2022-08-29T13:45:27.172Z,26.50
2022-08-29T13:48:23.319Z,23.08
2022-08-29T13:50:49.882Z,23.23
2022-08-29T13:53:16.681Z,23.88
2022-08-29T13:55:43.461Z,24.60
2022-08-29T13:58:12.321Z,24.92
2022-08-29T14:00:39.390Z,23.05
2022-08-29T14:03:07.479Z,23.50
2022-08-29T14:05:35.291Z,22.77
2022-08-29T14:08:02.464Z,22.55
2022-08-29T14:10:29.031Z,22.00
2022-08-29T14:12:55.558Z,20.23
2022-08-29T14:15:22.103Z,22.70
2022-08-29T14:17:48.931Z,27.20
2022-08-29T14:20:17.666Z,22.73
2022-08-29T14:22:45.184Z,24.67
2022-08-29T14:25:12.914Z,24.00
2022-08-29T14:27:40.276Z,26.90
2022-08-29T14:30:09.023Z,24.08
2022-08-29T14:32:35.762Z,24.08
2022-08-29T14:35:03.969Z,24.83
2022-08-29T14:37:32.170Z,25.02
2022-08-29T14:39:59.111Z,25.98
2022-08-29T14:42:25.790Z,23.13
2022-08-29T14:44:52.600Z,24.17
2022-08-29T14:47:20.529Z,22.40
2022-08-29T14:49:47.085Z,24.60
2022-08-29T14:52:15.090Z,21.73
2022-08-29T14:54:44.832Z,23.40
2022-08-29T14:57:11.380Z,21.70
2022-08-29T14:59:39.538Z,22.38
2022-08-29T15:02:08.218Z,21.85
2022-08-29T15:04:36.942Z,23.90
2022-08-29T15:07:06.451Z,20.25
2022-08-29T15:09:33.233Z,21.25
2022-08-29T15:11:59.833Z,22.75
2022-08-29T15:14:27.442Z,22.58
2022-08-29T15:16:54.010Z,22.23
2022-08-29T15:22:08.506Z,22.27
2022-08-29T15:24:35.123Z,22.05
2022-08-29T15:27:02.194Z,20.38
2022-08-29T15:29:28.958Z,22.40
2022-08-29T15:32:00.103Z,22.50
2022-08-29T15:34:28.280Z,21.25
2022-08-29T15:36:56.151Z,20.17
2022-08-29T15:39:23.669Z,19.88
2022-08-29T15:41:50.421Z,20.63
2022-08-29T15:44:17.131Z,20.90
2022-08-29T15:46:50.341Z,21.38
2022-08-29T15:49:19.919Z,19.25
2022-08-29T15:51:48.162Z,21.48
2022-08-29T15:54:15.151Z,21.52
2022-08-29T15:56:42.394Z,23.75
2022-08-29T15:59:11.100Z,24.08
2022-08-29T16:01:44.300Z,26.10
